Time;durP1;ratioP1;P1;durP2;ratioP2;P2;SDS_P1;SDS_P2;PMS_P1;PMS_P2;Temp;Humidity;BMP_temperature;BMP_pressure;BME280_temperature;BME280_humidity;BME280_pressure;Samples;Min_cycle;Max_cycle;Signal;HPM_P1;HPM_P2
2021/12/29 00:02:21;;;;;;;2.37;2.17;;;3.20;99.90;;;;;;4444649;32;20104;-65
2021/12/29 00:04:46;;;;;;;0.70;0.70;;;3.20;99.90;;;;;;4443551;32;20065;-64
2021/12/29 00:07:12;;;;;;;0.90;0.90;;;3.20;99.90;;;;;;4445411;32;20172;-64
2021/12/29 00:09:40;;;;;;;0.98;0.98;;;3.20;99.90;;;;;;4444298;32;20600;-65
2021/12/29 00:12:09;;;;;;;0.90;0.90;;;3.20;99.90;;;;;;4445540;32;20181;-64
2021/12/29 00:14:35;;;;;;;0.90;0.90;;;3.20;99.90;;;;;;4445497;32;20073;-66
2021/12/29 00:17:00;;;;;;;0.52;0.52;;;3.30;99.90;;;;;;4427898;32;20092;-65
2021/12/29 00:19:26;;;;;;;2.55;1.48;;;3.20;99.90;;;;;;4443103;32;20120;-64
2021/12/29 00:21:51;;;;;;;0.85;0.85;;;3.20;99.90;;;;;;4431219;32;20081;-64
2021/12/29 00:24:17;;;;;;;1.23;1.12;;;3.20;99.90;;;;;;4445994;32;20547;-64
2021/12/29 00:26:42;;;;;;;0.70;0.70;;;3.20;99.90;;;;;;4444367;32;20496;-64
2021/12/29 00:29:08;;;;;;;0.60;0.60;;;3.20;99.90;;;;;;4443700;32;20153;-64
2021/12/29 00:31:34;;;;;;;0.85;0.85;;;3.20;99.90;;;;;;4443673;32;20100;-64
2021/12/29 00:33:59;;;;;;;1.30;0.95;;;3.20;99.90;;;;;;4443894;32;20065;-65
2021/12/29 00:36:26;;;;;;;2.10;1.48;;;3.30;99.90;;;;;;4444490;32;20105;-65
2021/12/29 00:38:52;;;;;;;0.62;0.62;;;3.30;99.90;;;;;;4444724;32;20540;-65
2021/12/29 00:41:18;;;;;;;0.88;0.80;;;3.30;99.90;;;;;;4445760;32;20123;-65
2021/12/29 00:43:44;;;;;;;0.60;0.60;;;3.30;99.90;;;;;;4429166;32;20432;-65
2021/12/29 00:46:12;;;;;;;1.58;1.12;;;3.30;99.90;;;;;;4443751;32;20070;-65
2021/12/29 00:48:42;;;;;;;1.15;1.05;;;3.30;99.90;;;;;;4445616;32;20068;-64
2021/12/29 00:51:09;;;;;;;1.33;1.23;;;3.30;99.90;;;;;;4429674;32;20414;-63
2021/12/29 00:53:35;;;;;;;1.27;0.88;;;3.40;99.90;;;;;;4444454;32;20081;-63
2021/12/29 00:56:01;;;;;;;1.23;1.10;;;3.40;99.90;;;;;;4444700;32;20078;-65
2021/12/29 00:58:28;;;;;;;5.72;2.33;;;3.40;99.90;;;;;;4429204;32;20065;-65
2021/12/29 01:00:54;;;;;;;2.40;1.85;;;3.40;99.90;;;;;;4443546;32;20126;-63
2021/12/29 01:03:19;;;;;;;0.60;0.60;;;3.40;99.90;;;;;;4444628;32;20136;-64
2021/12/29 01:05:45;;;;;;;0.80;0.75;;;3.40;99.90;;;;;;4444818;32;20073;-65
2021/12/29 01:08:11;;;;;;;2.05;1.58;;;3.40;99.90;;;;;;4445023;32;20089;-64
2021/12/29 01:10:39;;;;;;;0.70;0.70;;;3.50;99.90;;;;;;4417979;32;20060;-65
2021/12/29 01:13:08;;;;;;;0.62;0.62;;;3.50;99.90;;;;;;4445510;32;20142;-65
2021/12/29 01:15:56;;;;;;;1.00;1.00;;;3.50;99.90;;;;;;4444687;32;20482;-64
2021/12/29 01:18:22;;;;;;;5.82;1.70;;;3.40;99.90;;;;;;4432883;32;20084;-64
2021/12/29 01:20:47;;;;;;;1.17;0.95;;;3.30;99.90;;;;;;4443396;32;20143;-65
2021/12/29 01:23:13;;;;;;;0.80;0.80;;;3.30;99.90;;;;;;4444071;32;20068;-65
2021/12/29 01:25:38;;;;;;;0.75;0.75;;;3.20;99.90;;;;;;4445041;32;20062;-64
2021/12/29 01:28:04;;;;;;;1.25;1.20;;;3.20;99.90;;;;;;4441124;32;20484;-64
2021/12/29 01:30:29;;;;;;;0.73;0.73;;;3.20;99.90;;;;;;4443751;32;20065;-64
2021/12/29 01:32:55;;;;;;;0.80;0.80;;;3.20;99.90;;;;;;4443805;32;20127;-64
2021/12/29 01:35:20;;;;;;;1.65;1.15;;;3.20;99.90;;;;;;4426764;32;20590;-65
2021/12/29 01:37:46;;;;;;;1.15;1.05;;;3.20;99.90;;;;;;4443659;32;20120;-64
2021/12/29 01:40:14;;;;;;;1.85;1.35;;;3.30;99.90;;;;;;4440699;32;20552;-64
2021/12/29 01:42:40;;;;;;;3.72;1.52;;;3.30;99.90;;;;;;4430106;32;20525;-63
2021/12/29 01:45:07;;;;;;;3.60;1.10;;;3.30;99.90;;;;;;4417126;32;20077;-65
2021/12/29 01:47:33;;;;;;;0.80;0.80;;;3.30;99.90;;;;;;4444403;32;20064;-64
2021/12/29 01:50:00;;;;;;;8.02;1.67;;;3.40;99.90;;;;;;4443927;32;20544;-64
2021/12/29 01:52:31;;;;;;;2.10;1.37;;;3.40;99.90;;;;;;4428911;32;20081;-64
2021/12/29 01:54:57;;;;;;;;;;;3.50;99.90;;;;;;4445002;32;20057;-65
2021/12/29 01:57:22;;;;;;;1.48;1.37;;;3.50;99.90;;;;;;4443328;32;20348;-64
2021/12/29 01:59:48;;;;;;;0.90;0.90;;;3.60;99.90;;;;;;4426830;32;20085;-65
2021/12/29 02:02:14;;;;;;;0.50;0.50;;;3.70;99.90;;;;;;4441385;32;20127;-64
2021/12/29 02:04:42;;;;;;;3.25;0.88;;;3.80;99.90;;;;;;4444480;32;20077;-64
2021/12/29 02:07:08;;;;;;;0.90;0.90;;;3.80;99.90;;;;;;4443773;32;20081;-65
2021/12/29 02:09:34;;;;;;;0.60;0.60;;;3.80;99.90;;;;;;4443225;32;20081;-64
2021/12/29 02:12:00;;;;;;;1.55;1.23;;;3.80;99.90;;;;;;4442749;32;20073;-64
2021/12/29 02:14:26;;;;;;;0.93;0.93;;;3.80;99.90;;;;;;4444470;32;20531;-64
2021/12/29 02:16:51;;;;;;;2.12;1.27;;;3.80;99.90;;;;;;4443731;32;20163;-65
2021/12/29 02:19:17;;;;;;;1.45;1.27;;;3.70;99.90;;;;;;4444365;32;20088;-65
2021/12/29 02:21:51;;;;;;;1.10;0.98;;;3.80;99.90;;;;;;4443466;32;20061;-65
2021/12/29 02:24:19;;;;;;;0.45;0.45;;;3.70;99.90;;;;;;4442871;32;20073;-65
2021/12/29 02:26:45;;;;;;;2.87;1.98;;;3.70;99.90;;;;;;4429377;32;20065;-64
2021/12/29 02:29:15;;;;;;;1.48;1.37;;;3.70;99.90;;;;;;4441657;32;20081;-64
2021/12/29 02:31:42;;;;;;;1.12;1.02;;;3.70;99.90;;;;;;4442106;32;20085;-65
2021/12/29 02:34:10;;;;;;;0.75;0.75;;;3.70;99.90;;;;;;4442411;32;20568;-65
2021/12/29 02:36:43;;;;;;;1.12;1.05;;;3.70;99.90;;;;;;4429851;32;20093;-65
2021/12/29 02:39:11;;;;;;;1.25;1.08;;;3.70;99.90;;;;;;4438731;32;20407;-63
2021/12/29 02:41:41;;;;;;;0.80;0.80;;;3.80;99.90;;;;;;4443887;32;20077;-64
2021/12/29 02:44:10;;;;;;;0.62;0.62;;;3.80;99.90;;;;;;4442791;32;20084;-65
2021/12/29 02:46:37;;;;;;;4.68;1.30;;;3.70;99.90;;;;;;4425539;32;20120;-64
2021/12/29 02:49:03;;;;;;;2.40;0.95;;;3.70;99.90;;;;;;4428499;32;20116;-65
2021/12/29 02:51:31;;;;;;;0.70;0.70;;;3.70;99.90;;;;;;4444071;32;20065;-64
2021/12/29 02:53:56;;;;;;;0.88;0.88;;;3.70;99.90;;;;;;4425712;32;20407;-65
2021/12/29 02:56:24;;;;;;;3.95;1.00;;;3.70;99.90;;;;;;4442036;32;20076;-65
2021/12/29 02:58:49;;;;;;;1.30;1.20;;;3.80;99.90;;;;;;4442518;32;20065;-64
2021/12/29 03:01:16;;;;;;;0.80;0.80;;;3.70;99.90;;;;;;4441118;32;20124;-65
2021/12/29 03:03:42;;;;;;;0.93;0.88;;;3.70;99.90;;;;;;4442972;32;20064;-65
2021/12/29 03:06:09;;;;;;;0.43;0.43;;;3.70;99.90;;;;;;4441781;32;20160;-64
2021/12/29 03:08:36;;;;;;;0.90;0.90;;;3.70;99.90;;;;;;4442168;32;20064;-64
2021/12/29 03:11:02;;;;;;;0.90;0.85;;;3.70;99.90;;;;;;4426172;32;20097;-64
2021/12/29 03:13:31;;;;;;;1.02;0.93;;;3.70;99.90;;;;;;4441911;32;20065;-65
2021/12/29 03:15:57;;;;;;;1.02;0.93;;;3.80;99.90;;;;;;4443243;32;20076;-64
2021/12/29 03:18:22;;;;;;;1.70;1.00;;;3.80;99.90;;;;;;4429939;32;20073;-64
2021/12/29 03:20:49;;;;;;;1.00;0.70;;;3.80;99.90;;;;;;4432262;32;20118;-65
2021/12/29 03:23:16;;;;;;;0.80;0.80;;;3.80;99.90;;;;;;4445110;32;20722;-64
2021/12/29 03:25:42;;;;;;;0.50;0.50;;;3.90;99.90;;;;;;4430929;32;20073;-65
2021/12/29 03:28:08;;;;;;;0.65;0.65;;;4.00;99.90;;;;;;4444724;32;20120;-64
2021/12/29 03:30:37;;;;;;;0.60;0.60;;;3.80;99.90;;;;;;4443762;32;20521;-65
2021/12/29 03:33:04;;;;;;;2.40;1.23;;;3.60;99.90;;;;;;4444116;32;20066;-65
2021/12/29 03:35:33;;;;;;;0.77;0.77;;;3.60;99.90;;;;;;4445040;32;20434;-66
2021/12/29 03:38:00;;;;;;;1.05;0.93;;;3.60;99.90;;;;;;4431487;32;20072;-65
2021/12/29 03:40:26;;;;;;;0.68;0.68;;;3.70;99.90;;;;;;4444724;32;20124;-65
2021/12/29 03:42:52;;;;;;;0.57;0.57;;;3.60;99.90;;;;;;4445607;32;20139;-65
2021/12/29 03:45:18;;;;;;;2.30;1.20;;;3.50;99.90;;;;;;4445290;32;20081;-64
2021/12/29 03:47:43;;;;;;;0.70;0.70;;;3.50;99.90;;;;;;4445334;32;20427;-64
2021/12/29 03:50:09;;;;;;;0.95;0.95;;;3.40;99.90;;;;;;4445145;32;20116;-65
2021/12/29 03:52:35;;;;;;;0.62;0.62;;;3.40;99.90;;;;;;4444614;32;20426;-65
2021/12/29 03:55:00;;;;;;;0.50;0.50;;;3.30;99.90;;;;;;4445880;32;20060;-65
2021/12/29 03:57:26;;;;;;;4.53;1.20;;;3.20;99.90;;;;;;4444846;32;20747;-64
2021/12/29 03:59:51;;;;;;;0.52;0.52;;;3.20;99.90;;;;;;4444985;32;20089;-65
2021/12/29 04:02:17;;;;;;;0.52;0.52;;;3.30;99.90;;;;;;4444225;32;20065;-65
2021/12/29 04:04:42;;;;;;;1.02;0.85;;;3.30;99.90;;;;;;4444253;32;20080;-65
2021/12/29 04:07:08;;;;;;;6.93;1.75;;;3.30;99.90;;;;;;4444584;32;20112;-65
2021/12/29 04:09:33;;;;;;;0.80;0.80;;;3.40;99.90;;;;;;4444524;32;20099;-65
2021/12/29 04:11:59;;;;;;;0.60;0.60;;;3.30;99.90;;;;;;4446195;32;20115;-65
2021/12/29 04:14:26;;;;;;;0.40;0.40;;;3.50;99.90;;;;;;4440011;32;20534;-65
2021/12/29 04:16:53;;;;;;;0.98;0.80;;;3.70;99.90;;;;;;4431638;32;20061;-65
2021/12/29 04:19:29;;;;;;;4.40;1.27;;;3.90;99.90;;;;;;4445470;32;20180;-65
2021/12/29 04:21:57;;;;;;;0.35;0.35;;;3.90;99.90;;;;;;4445340;32;20077;-65
2021/12/29 04:24:24;;;;;;;0.60;0.60;;;3.90;99.90;;;;;;4445307;32;20073;-65
2021/12/29 04:26:50;;;;;;;2.97;1.48;;;3.80;99.90;;;;;;4445344;32;20064;-65
2021/12/29 04:29:15;;;;;;;0.43;0.43;;;3.80;99.90;;;;;;4441512;32;20135;-65
2021/12/29 04:31:43;;;;;;;1.58;1.45;;;3.90;99.90;;;;;;4428421;32;20068;-65
2021/12/29 04:34:08;;;;;;;1.23;1.02;;;3.90;99.90;;;;;;4426482;32;82379;-64
2021/12/29 04:36:34;;;;;;;1.17;1.08;;;3.80;99.90;;;;;;4444432;32;20096;-64
2021/12/29 04:39:03;;;;;;;0.85;0.85;;;3.80;99.90;;;;;;4444376;32;20109;-65
2021/12/29 04:41:28;;;;;;;0.55;0.55;;;3.80;99.90;;;;;;4444769;32;20065;-65
2021/12/29 04:43:54;;;;;;;0.65;0.65;;;3.80;99.90;;;;;;4444708;32;20452;-64
2021/12/29 04:46:27;;;;;;;0.70;0.70;;;3.80;99.90;;;;;;4444166;32;20073;-65
2021/12/29 04:48:59;;;;;;;0.98;0.88;;;3.80;99.90;;;;;;4430568;32;20064;-65
2021/12/29 04:51:33;;;;;;;0.57;0.57;;;3.90;99.90;;;;;;4444390;32;20113;-66
2021/12/29 04:53:59;;;;;;;0.57;0.57;;;3.90;99.90;;;;;;4445762;32;20123;-63
2021/12/29 04:56:24;;;;;;;1.33;1.23;;;3.90;99.90;;;;;;4445014;32;20077;-65
2021/12/29 04:58:50;;;;;;;0.60;0.60;;;4.00;99.90;;;;;;4430166;32;20506;-65
2021/12/29 05:01:16;;;;;;;1.27;0.95;;;3.90;99.90;;;;;;4443312;32;20065;-65
2021/12/29 05:03:44;;;;;;;0.80;0.77;;;3.90;99.90;;;;;;4428923;32;20068;-65
2021/12/29 05:08:36;;;;;;;2.58;1.62;;;4.00;99.90;;;;;;4443682;32;20159;-65
2021/12/29 05:11:05;;;;;;;2.45;1.25;;;4.10;99.90;;;;;;4430951;32;20053;-65
2021/12/29 05:13:34;;;;;;;0.50;0.50;;;4.10;99.90;;;;;;4444198;32;20123;-64
2021/12/29 05:16:00;;;;;;;0.60;0.60;;;4.10;99.90;;;;;;4427869;32;20412;-65
2021/12/29 05:18:28;;;;;;;0.50;0.50;;;4.10;99.90;;;;;;4427145;32;20127;-65
2021/12/29 05:20:55;;;;;;;0.40;0.40;;;4.10;99.90;;;;;;4433515;32;20516;-65
2021/12/29 05:23:20;;;;;;;1.98;1.10;;;4.00;99.90;;;;;;4431229;32;20056;-65
2021/12/29 05:25:46;;;;;;;0.65;0.65;;;4.00;99.90;;;;;;4429982;32;20396;-64
2021/12/29 05:28:13;;;;;;;1.27;0.93;;;4.10;99.90;;;;;;4425927;32;20125;-65
2021/12/29 05:30:39;;;;;;;1.58;0.80;;;4.00;99.90;;;;;;4433063;32;20126;-65
2021/12/29 05:33:05;;;;;;;1.95;0.75;;;4.00;99.90;;;;;;4443138;32;20405;-65
2021/12/29 05:35:30;;;;;;;0.80;0.80;;;4.00;99.90;;;;;;4444912;32;20081;-65
2021/12/29 05:37:56;;;;;;;0.90;0.90;;;4.00;99.90;;;;;;4443866;32;20069;-65
2021/12/29 05:40:23;;;;;;;0.60;0.60;;;4.00;99.90;;;;;;4444402;32;20062;-65
2021/12/29 05:42:49;;;;;;;1.40;0.90;;;4.00;99.90;;;;;;4427661;32;20529;-64
2021/12/29 05:45:14;;;;;;;0.40;0.40;;;4.00;99.90;;;;;;4443525;32;20066;-66
2021/12/29 05:47:41;;;;;;;0.85;0.85;;;4.00;99.90;;;;;;4443303;32;20117;-65
2021/12/29 05:50:09;;;;;;;1.90;1.20;;;4.10;99.90;;;;;;4430561;32;20135;-66
2021/12/29 05:52:35;;;;;;;0.70;0.65;;;4.20;99.90;;;;;;4443117;32;20061;-65
2021/12/29 05:55:00;;;;;;;1.85;0.80;;;4.20;99.90;;;;;;4443557;32;20101;-65
2021/12/29 05:57:26;;;;;;;1.12;1.02;;;4.20;99.90;;;;;;4443673;32;20060;-65
2021/12/29 05:59:51;;;;;;;3.90;1.52;;;4.10;99.90;;;;;;4441660;32;20077;-65
2021/12/29 06:02:17;;;;;;;2.15;0.98;;;4.20;99.90;;;;;;4441252;32;20068;-65
2021/12/29 06:04:42;;;;;;;0.70;0.70;;;4.20;99.90;;;;;;4443714;32;20521;-65
2021/12/29 06:07:08;;;;;;;1.37;1.10;;;4.20;99.90;;;;;;4443051;32;20065;-65
2021/12/29 06:09:33;;;;;;;2.08;1.10;;;4.20;99.90;;;;;;4443792;32;20089;-65
2021/12/29 06:11:59;;;;;;;0.80;0.80;;;4.20;99.90;;;;;;4441401;32;20123;-64
2021/12/29 06:14:24;;;;;;;0.50;0.50;;;4.20;99.90;;;;;;4443034;32;20069;-65
2021/12/29 06:16:50;;;;;;;0.82;0.80;;;4.30;99.90;;;;;;4442890;32;20080;-65
2021/12/29 06:19:15;;;;;;;2.95;0.82;;;4.30;99.90;;;;;;4443324;32;20077;-65
2021/12/29 06:21:41;;;;;;;2.28;1.08;;;4.20;99.90;;;;;;4443422;32;20512;-65
2021/12/29 06:24:07;;;;;;;0.65;0.65;;;4.20;99.90;;;;;;4429833;32;20105;-65
2021/12/29 06:26:33;;;;;;;0.50;0.50;;;4.20;99.90;;;;;;4442400;32;20195;-65
2021/12/29 06:28:59;;;;;;;1.12;1.02;;;4.20;99.90;;;;;;4425934;32;20074;-65
2021/12/29 06:31:25;;;;;;;1.15;0.68;;;4.20;99.90;;;;;;4435398;32;20517;-64
2021/12/29 06:33:51;;;;;;;0.50;0.50;;;4.30;99.90;;;;;;4443773;32;20101;-65
2021/12/29 06:36:16;;;;;;;0.93;0.93;;;4.30;99.90;;;;;;4444334;32;20069;-65
2021/12/29 06:38:42;;;;;;;0.57;0.57;;;4.30;99.90;;;;;;4443207;32;20061;-64
2021/12/29 06:41:08;;;;;;;0.68;0.68;;;4.30;99.90;;;;;;4442792;32;20155;-65
2021/12/29 06:43:34;;;;;;;1.05;0.95;;;4.40;99.90;;;;;;4443213;32;20085;-65
2021/12/29 06:46:00;;;;;;;1.58;1.15;;;4.40;99.90;;;;;;4443481;32;20065;-64
2021/12/29 06:48:25;;;;;;;1.27;0.55;;;4.40;99.90;;;;;;4442692;32;20089;-65
2021/12/29 06:50:51;;;;;;;1.10;0.98;;;4.30;99.90;;;;;;4443890;32;20069;-64
2021/12/29 06:53:16;;;;;;;0.73;0.73;;;4.30;99.90;;;;;;4443305;32;20077;-65
2021/12/29 06:55:43;;;;;;;0.82;0.80;;;4.40;99.90;;;;;;4433807;32;20549;-64
2021/12/29 06:58:11;;;;;;;5.60;1.37;;;4.40;99.90;;;;;;4442617;32;20069;-65
2021/12/29 07:00:37;;;;;;;0.40;0.40;;;4.40;99.90;;;;;;4444990;32;20060;-65
2021/12/29 07:03:02;;;;;;;0.40;0.40;;;4.40;99.90;;;;;;4443302;32;20089;-65
2021/12/29 07:05:28;;;;;;;0.50;0.50;;;4.50;99.90;;;;;;4446791;32;20081;-65
2021/12/29 07:07:54;;;;;;;0.80;0.73;;;4.50;99.90;;;;;;4432374;32;20074;-66
2021/12/29 07:10:20;;;;;;;1.17;1.08;;;4.50;99.90;;;;;;4437767;32;20130;-66
2021/12/29 07:12:47;;;;;;;0.50;0.50;;;4.50;99.90;;;;;;4445763;32;20089;-65
2021/12/29 07:15:12;;;;;;;0.60;0.60;;;4.40;99.90;;;;;;4446432;32;20069;-66
2021/12/29 07:17:38;;;;;;;0.40;0.40;;;4.50;99.90;;;;;;4445361;32;20076;-66
2021/12/29 07:20:04;;;;;;;1.42;0.70;;;4.50;99.90;;;;;;4446598;32;20069;-65
2021/12/29 07:22:30;;;;;;;0.65;0.65;;;4.60;99.90;;;;;;4445401;32;20123;-66
2021/12/29 07:24:56;;;;;;;1.20;0.60;;;4.60;99.90;;;;;;4444962;32;20072;-65
2021/12/29 07:27:21;;;;;;;0.60;0.60;;;4.50;99.90;;;;;;4443145;32;20069;-65
2021/12/29 07:29:47;;;;;;;0.45;0.45;;;4.50;99.90;;;;;;4444643;32;20123;-65
2021/12/29 07:32:13;;;;;;;1.50;1.15;;;4.60;99.90;;;;;;4442341;32;20057;-65
2021/12/29 07:34:39;;;;;;;5.05;1.10;;;4.60;99.90;;;;;;4445264;32;20432;-65
2021/12/29 07:37:04;;;;;;;0.52;0.52;;;4.60;99.90;;;;;;4444053;32;20064;-64
2021/12/29 07:39:30;;;;;;;0.88;0.88;;;4.60;99.90;;;;;;4441533;32;20532;-65
2021/12/29 07:41:56;;;;;;;1.75;0.50;;;4.70;99.90;;;;;;4444227;32;20143;-64
2021/12/29 07:44:23;;;;;;;6.65;1.10;;;4.70;99.90;;;;;;4431634;32;20115;-65
2021/12/29 07:46:53;;;;;;;0.75;0.73;;;4.70;99.90;;;;;;4444071;32;20065;-65
2021/12/29 07:49:18;;;;;;;0.70;0.70;;;4.60;99.90;;;;;;4432270;32;20061;-64
2021/12/29 07:51:44;;;;;;;7.87;1.33;;;4.70;99.90;;;;;;4444782;32;20109;-64
2021/12/29 07:54:10;;;;;;;0.60;0.60;;;4.70;99.90;;;;;;4445728;32;20548;-64
2021/12/29 07:56:36;;;;;;;1.02;0.62;;;4.70;99.90;;;;;;4445501;32;20422;-64
2021/12/29 07:59:02;;;;;;;1.45;1.10;;;4.70;99.90;;;;;;4431250;32;20065;-64
2021/12/29 08:01:27;;;;;;;0.65;0.65;;;4.70;99.90;;;;;;4443256;32;20062;-65
2021/12/29 08:03:53;;;;;;;1.35;1.25;;;4.70;99.90;;;;;;4443044;32;20049;-64
2021/12/29 08:06:19;;;;;;;0.88;0.60;;;4.70;99.90;;;;;;4428683;32;20062;-65
2021/12/29 08:08:45;;;;;;;0.77;0.77;;;4.70;99.90;;;;;;4440999;32;20123;-65
2021/12/29 08:11:11;;;;;;;0.50;0.50;;;4.70;99.90;;;;;;4445244;32;20057;-65
2021/12/29 08:13:37;;;;;;;0.88;0.85;;;4.70;99.90;;;;;;4445012;32;20151;-64
2021/12/29 08:16:03;;;;;;;0.60;0.60;;;4.70;99.90;;;;;;4444180;32;20078;-64
2021/12/29 08:18:28;;;;;;;2.62;1.62;;;4.70;99.90;;;;;;4428585;32;20057;-64
2021/12/29 08:20:54;;;;;;;3.62;1.65;;;4.60;99.90;;;;;;4441967;32;20266;-65
2021/12/29 08:23:19;;;;;;;0.55;0.55;;;4.60;99.90;;;;;;4445406;32;20064;-65
2021/12/29 08:25:45;;;;;;;2.33;1.27;;;4.70;99.90;;;;;;4427983;32;20568;-65
2021/12/29 08:28:11;;;;;;;1.37;0.82;;;4.70;99.90;;;;;;4435165;32;20065;-65
2021/12/29 08:30:36;;;;;;;0.60;0.60;;;4.70;99.90;;;;;;4445079;32;20081;-65
2021/12/29 08:33:02;;;;;;;2.12;1.35;;;4.70;99.90;;;;;;4438047;32;20580;-65
2021/12/29 08:35:27;;;;;;;1.55;0.93;;;4.70;99.90;;;;;;4444229;32;20127;-65
2021/12/29 08:37:54;;;;;;;1.23;1.12;;;4.70;99.90;;;;;;4429243;32;20061;-65
2021/12/29 08:40:20;;;;;;;3.40;1.30;;;4.70;99.90;;;;;;4424061;32;20074;-65
2021/12/29 08:42:47;;;;;;;0.65;0.65;;;4.70;99.90;;;;;;4439677;32;20138;-65
2021/12/29 08:45:14;;;;;;;0.40;0.40;;;4.70;99.90;;;;;;4443916;32;20081;-65
2021/12/29 08:47:41;;;;;;;0.62;0.50;;;4.80;99.90;;;;;;4443823;32;20119;-65
2021/12/29 08:50:09;;;;;;;2.30;1.40;;;4.80;99.90;;;;;;4444495;32;20509;-65
2021/12/29 08:52:35;;;;;;;1.85;0.80;;;4.80;99.90;;;;;;4429889;32;20061;-64
2021/12/29 08:55:02;;;;;;;0.77;0.77;;;4.80;99.90;;;;;;4443729;32;20090;-64
2021/12/29 08:57:28;;;;;;;2.20;1.37;;;4.80;99.90;;;;;;4443610;32;20298;-64
2021/12/29 08:59:54;;;;;;;0.60;0.60;;;4.80;99.90;;;;;;4443798;32;20069;-65
2021/12/29 09:02:19;;;;;;;2.22;0.75;;;4.90;99.90;;;;;;4443786;32;20112;-65
2021/12/29 09:04:45;;;;;;;0.50;0.45;;;4.90;99.90;;;;;;4443877;32;20535;-65
2021/12/29 09:07:10;;;;;;;1.02;0.62;;;4.90;99.90;;;;;;4435730;32;20125;-64
2021/12/29 09:09:35;;;;;;;0.30;0.30;;;4.90;99.90;;;;;;4442779;32;20490;-64
2021/12/29 09:12:01;;;;;;;0.32;0.32;;;4.90;99.90;;;;;;4444115;32;20081;-65
2021/12/29 09:14:27;;;;;;;1.83;1.52;;;5.00;99.90;;;;;;4444867;32;20508;-64
2021/12/29 09:16:52;;;;;;;1.15;1.05;;;5.00;99.90;;;;;;4444402;32;20086;-64
2021/12/29 09:19:18;;;;;;;0.73;0.73;;;5.10;99.90;;;;;;4444378;32;20082;-65
2021/12/29 09:21:44;;;;;;;0.60;0.60;;;5.10;99.90;;;;;;4444662;32;20069;-65
2021/12/29 09:24:11;;;;;;;0.75;0.75;;;5.00;99.90;;;;;;4426531;32;20131;-65
2021/12/29 09:26:37;;;;;;;0.70;0.70;;;5.00;99.90;;;;;;4442926;32;20116;-65
2021/12/29 09:29:04;;;;;;;1.65;0.93;;;5.00;99.90;;;;;;4444081;32;20081;-64
2021/12/29 09:31:29;;;;;;;4.25;1.10;;;5.00;99.90;;;;;;4416174;32;20068;-65
2021/12/29 09:33:56;;;;;;;2.60;1.48;;;5.10;99.90;;;;;;4429165;32;20137;-65
2021/12/29 09:36:23;;;;;;;0.50;0.50;;;5.10;99.90;;;;;;4442907;32;20068;-65
2021/12/29 09:38:48;;;;;;;0.50;0.50;;;5.10;99.90;;;;;;4442903;32;20069;-64
2021/12/29 09:41:16;;;;;;;0.85;0.85;;;5.10;99.90;;;;;;4443597;32;20123;-64
2021/12/29 09:43:43;;;;;;;2.17;1.35;;;5.10;99.90;;;;;;4444609;32;20097;-64
2021/12/29 09:46:09;;;;;;;0.50;0.50;;;5.10;99.90;;;;;;4443187;32;20080;-64
2021/12/29 09:48:36;;;;;;;1.37;1.27;;;5.10;99.90;;;;;;4416970;32;20069;-64
2021/12/29 09:51:04;;;;;;;0.93;0.57;;;5.10;99.90;;;;;;4428568;32;20513;-64
2021/12/29 09:53:30;;;;;;;0.40;0.40;;;5.10;99.90;;;;;;4442626;32;20156;-65
2021/12/29 09:55:56;;;;;;;0.82;0.68;;;5.10;99.90;;;;;;4442519;32;20504;-65
2021/12/29 09:58:21;;;;;;;2.92;1.85;;;5.10;99.90;;;;;;4442017;32;20085;-66
2021/12/29 10:00:50;;;;;;;0.45;0.45;;;5.10;99.90;;;;;;4442121;32;20516;-65
2021/12/29 10:03:19;;;;;;;0.60;0.60;;;5.10;99.90;;;;;;4442429;32;20482;-64
2021/12/29 10:05:46;;;;;;;0.57;0.50;;;5.20;99.90;;;;;;4443098;32;20069;-65
2021/12/29 10:08:32;;;;;;;0.70;0.70;;;5.20;99.90;;;;;;4442759;32;20093;-65
2021/12/29 10:11:02;;;;;;;0.40;0.40;;;5.30;99.90;;;;;;4421462;32;20073;-64
2021/12/29 10:13:30;;;;;;;0.40;0.40;;;5.30;99.90;;;;;;4444662;32;20069;-65
2021/12/29 10:16:05;;;;;;;12.32;1.17;;;5.30;99.90;;;;;;4443622;32;20062;-65
2021/12/29 10:18:32;;;;;;;3.30;0.93;;;5.30;99.90;;;;;;4443422;32;20427;-65
2021/12/29 10:21:03;;;;;;;0.88;0.85;;;5.30;99.90;;;;;;4428241;32;20093;-65
2021/12/29 10:23:30;;;;;;;;;;;5.30;99.90;;;;;;4443002;32;20503;-64
2021/12/29 10:26:03;;;;;;;0.30;0.30;;;5.30;99.90;;;;;;4442676;32;19963;-64
2021/12/29 10:28:32;;;;;;;1.23;1.12;;;5.30;99.90;;;;;;4427039;32;20116;-64
2021/12/29 10:31:05;;;;;;;1.05;0.60;;;5.30;99.90;;;;;;4445008;32;20592;-65
2021/12/29 10:33:33;;;;;;;5.15;1.55;;;5.40;99.90;;;;;;4445958;32;20076;-64
2021/12/29 10:36:11;;;;;;;0.62;0.62;;;5.40;99.90;;;;;;4445397;32;20066;-65
2021/12/29 10:38:37;;;;;;;0.60;0.60;;;5.40;99.90;;;;;;4443557;32;20057;-65
2021/12/29 10:41:04;;;;;;;2.08;0.98;;;5.40;99.90;;;;;;4430550;32;20502;-64
2021/12/29 10:43:30;;;;;;;1.60;1.35;;;5.50;99.90;;;;;;4445177;32;20127;-64
2021/12/29 10:45:57;;;;;;;10.32;1.12;;;5.40;99.90;;;;;;4444326;32;20069;-64
2021/12/29 10:48:27;;;;;;;16.55;1.75;;;5.40;99.90;;;;;;4446129;32;20061;-65
2021/12/29 10:51:02;;;;;;;0.75;0.75;;;5.50;99.90;;;;;;4445824;32;20458;-64
2021/12/29 10:53:30;;;;;;;10.63;0.95;;;5.50;99.90;;;;;;4434122;32;20069;-65
2021/12/29 10:55:55;;;;;;;0.70;0.70;;;5.50;99.90;;;;;;4427794;32;20073;-64
2021/12/29 10:58:25;;;;;;;0.50;0.50;;;5.60;99.90;;;;;;4438855;32;20120;-65
2021/12/29 11:01:15;;;;;;;0.50;0.50;;;5.60;99.90;;;;;;4445200;32;20073;-64
2021/12/29 11:03:46;;;;;;;2.95;1.73;;;5.60;99.90;;;;;;4446303;32;20053;-65
2021/12/29 11:06:15;;;;;;;0.75;0.75;;;5.60;99.90;;;;;;4445060;32;20082;-65
2021/12/29 11:08:52;;;;;;;0.40;0.40;;;5.60;99.90;;;;;;4444619;32;20058;-64
2021/12/29 11:11:21;;;;;;;0.37;0.37;;;5.70;99.90;;;;;;4444032;32;20057;-65
2021/12/29 11:13:46;;;;;;;0.60;0.60;;;5.70;99.90;;;;;;4445274;32;20127;-64
2021/12/29 11:16:12;;;;;;;0.80;0.80;;;5.70;99.90;;;;;;4444706;32;20072;-64
2021/12/29 11:18:49;;;;;;;0.65;0.50;;;5.70;99.90;;;;;;4444369;32;20480;-65
2021/12/29 11:21:26;;;;;;;3.42;2.03;;;5.80;99.90;;;;;;4430755;32;20145;-65
2021/12/29 11:23:52;;;;;;;1.00;0.88;;;5.80;99.90;;;;;;4428894;32;20090;-64
2021/12/29 11:26:28;;;;;;;12.48;4.03;;;5.80;99.90;;;;;;4444320;32;20065;-65
2021/12/29 11:29:03;;;;;;;2.12;1.10;;;5.80;99.90;;;;;;4445533;32;20069;-65
2021/12/29 11:31:34;;;;;;;1.33;0.77;;;5.80;99.90;;;;;;4428073;32;20097;-65
2021/12/29 11:34:11;;;;;;;0.50;0.50;;;5.90;99.90;;;;;;4431658;32;20069;-65
2021/12/29 11:36:37;;;;;;;1.85;0.95;;;6.00;99.90;;;;;;4429890;32;20131;-65
2021/12/29 11:39:03;;;;;;;3.90;0.85;;;5.90;99.90;;;;;;4440013;32;20081;-65
2021/12/29 11:41:29;;;;;;;0.62;0.60;;;5.90;99.90;;;;;;4444849;32;20077;-66
2021/12/29 11:43:55;;;;;;;5.03;1.40;;;5.90;99.90;;;;;;4446250;32;20088;-66
2021/12/29 11:46:24;;;;;;;0.70;0.70;;;5.90;99.90;;;;;;4430152;32;20093;-66
2021/12/29 11:48:52;;;;;;;0.90;0.90;;;5.80;99.90;;;;;;4436322;32;20521;-64
2021/12/29 11:51:29;;;;;;;2.17;1.20;;;5.90;99.90;;;;;;4445331;32;20077;-65
2021/12/29 11:54:01;;;;;;;0.73;0.73;;;5.90;99.90;;;;;;4445442;32;20117;-66
2021/12/29 11:56:27;;;;;;;33.35;1.35;;;5.90;99.90;;;;;;4444518;32;20065;-65
2021/12/29 11:59:03;;;;;;;0.57;0.47;;;5.90;99.90;;;;;;4445551;32;20540;-66
2021/12/29 12:01:31;;;;;;;0.40;0.40;;;5.90;99.90;;;;;;4445736;32;20073;-65
2021/12/29 12:03:59;;;;;;;0.55;0.55;;;5.90;99.90;;;;;;4443712;32;20089;-66
2021/12/29 12:06:29;;;;;;;5.15;0.70;;;5.90;99.90;;;;;;4444188;32;20516;-65
2021/12/29 12:09:16;;;;;;;0.73;0.73;;;6.00;99.90;;;;;;4431368;32;20512;-65
2021/12/29 12:11:52;;;;;;;4.28;1.37;;;6.00;99.90;;;;;;4426058;32;20073;-65
2021/12/29 12:14:26;;;;;;;4.07;1.12;;;6.00;99.90;;;;;;4444668;32;20529;-66
2021/12/29 12:16:57;;;;;;;0.50;0.50;;;6.00;99.90;;;;;;4445053;32;20119;-68
2021/12/29 12:19:24;;;;;;;0.65;0.65;;;6.00;99.90;;;;;;4431147;32;20089;-65
2021/12/29 12:22:02;;;;;;;0.90;0.90;;;6.10;99.90;;;;;;4431154;32;20574;-66
2021/12/29 12:24:28;;;;;;;0.80;0.80;;;6.10;99.90;;;;;;4444763;32;20081;-65
2021/12/29 12:26:59;;;;;;;1.23;1.12;;;6.10;99.90;;;;;;4445920;32;20084;-65
2021/12/29 12:29:28;;;;;;;6.65;1.85;;;6.10;99.90;;;;;;4444963;32;20085;-65
2021/12/29 12:32:12;;;;;;;4.03;1.10;;;6.10;99.90;;;;;;4443890;32;20069;-65
2021/12/29 12:34:56;;;;;;;1.75;0.62;;;6.10;99.90;;;;;;4444713;32;20123;-65
2021/12/29 12:37:35;;;;;;;1.50;0.95;;;6.10;99.90;;;;;;4431296;32;20135;-64
2021/12/29 12:40:06;;;;;;;1.50;1.02;;;6.20;99.90;;;;;;4439278;32;20132;-65
2021/12/29 12:42:33;;;;;;;0.55;0.55;;;6.20;99.90;;;;;;4444394;32;20077;-65
2021/12/29 12:45:00;;;;;;;0.98;0.98;;;6.20;99.90;;;;;;4443728;32;20509;-65
2021/12/29 12:47:33;;;;;;;0.85;0.70;;;6.20;99.90;;;;;;4444936;32;20131;-65
2021/12/29 12:50:00;;;;;;;4.97;1.27;;;6.20;99.90;;;;;;4440681;32;20065;-68
2021/12/29 12:52:38;;;;;;;1.70;1.33;;;6.20;99.90;;;;;;4442302;32;20081;-67
2021/12/29 12:55:07;;;;;;;0.50;0.50;;;6.20;99.90;;;;;;4444819;32;20065;-68
2021/12/29 12:57:37;;;;;;;1.48;0.60;;;6.20;99.90;;;;;;4443432;32;20153;-68
2021/12/29 13:00:08;;;;;;;0.43;0.43;;;6.20;99.90;;;;;;4443233;32;20123;-67
2021/12/29 13:02:39;;;;;;;1.27;1.12;;;6.20;99.90;;;;;;4443060;32;20182;-68